Time;durP1;ratioP1;P1;durP2;ratioP2;P2;SDS_P1;SDS_P2;PMS_P1;PMS_P2;Temp;Humidity;BMP_temperature;BMP_pressure;BME280_temperature;BME280_humidity;BME280_pressure;Samples;Min_cycle;Max_cycle;Signal;HPM_P1;HPM_P2
2021/12/28 00:01:24;;;;;;;5.72;3.15;;;;;;;;;;4996854;28;20048;-59
2021/12/28 00:03:51;;;;;;;1.40;1.05;;;;;;;;;;5013207;28;20037;-59
2021/12/28 00:06:17;;;;;;;1.63;1.08;;;;;;;;;;5013494;28;20054;-58
2021/12/28 00:08:43;;;;;;;0.30;0.30;;;;;;;;;;5015367;28;20045;-57
2021/12/28 00:11:09;;;;;;;0.30;0.30;;;;;;;;;;5014721;28;20064;-59
2021/12/28 00:13:35;;;;;;;8.30;0.93;;;;;;;;;;5011969;28;20049;-58
2021/12/28 00:16:13;;;;;;;0.30;0.30;;;;;;;;;;5014156;28;20049;-59
2021/12/28 00:18:38;;;;;;;0.30;0.30;;;;;;;;;;5012401;28;20092;-60
2021/12/28 00:21:05;;;;;;;1.17;1.07;;;;;;;;;;5011817;28;20045;-59
2021/12/28 00:23:37;;;;;;;0.37;0.37;;;;;;;;;;5012701;28;20471;-60
2021/12/28 00:26:03;;;;;;;1.70;0.97;;;;;;;;;;4995795;28;20468;-59
2021/12/28 00:28:29;;;;;;;0.40;0.40;;;;;;;;;;5009693;28;20052;-59
2021/12/28 00:30:56;;;;;;;0.43;0.43;;;;;;;;;;5010454;28;20472;-57
2021/12/28 00:33:22;;;;;;;2.90;1.42;;;;;;;;;;5012031;28;20353;-59
2021/12/28 00:35:48;;;;;;;1.40;0.90;;;;;;;;;;5011300;28;20041;-59
2021/12/28 00:38:18;;;;;;;1.37;1.27;;;;;;;;;;5010893;28;20037;-59
2021/12/28 00:40:47;;;;;;;0.40;0.40;;;;;;;;;;5010599;28;20594;-59
2021/12/28 00:43:13;;;;;;;0.30;0.30;;;;;;;;;;5011468;28;20384;-60
2021/12/28 00:45:39;;;;;;;0.30;0.30;;;;;;;;;;5012007;28;20053;-59
2021/12/28 00:48:05;;;;;;;0.97;0.93;;;;;;;;;;5011188;28;20084;-60
2021/12/28 00:50:31;;;;;;;0.40;0.37;;;;;;;;;;5009164;28;20057;-60
2021/12/28 00:52:57;;;;;;;0.40;0.40;;;;;;;;;;5009823;28;20055;-60
2021/12/28 00:55:23;;;;;;;0.50;0.50;;;;;;;;;;5010652;28;20038;-60
2021/12/28 00:57:49;;;;;;;0.30;0.30;;;;;;;;;;5012290;28;20077;-59
2021/12/28 01:00:18;;;;;;;0.47;0.30;;;;;;;;;;5012539;28;20088;-59
2021/12/28 01:02:43;;;;;;;1.58;1.48;;;;;;;;;;5010583;28;20095;-60
2021/12/28 01:05:10;;;;;;;0.30;0.30;;;;;;;;;;5012034;28;21823;-60
2021/12/28 01:07:36;;;;;;;2.43;1.27;;;;;;;;;;5011021;28;20045;-60
2021/12/28 01:10:04;;;;;;;0.60;0.60;;;;;;;;;;5011157;28;20060;-58
2021/12/28 01:12:30;;;;;;;0.70;0.70;;;;;;;;;;5011589;28;20042;-59
2021/12/28 01:14:56;;;;;;;0.30;0.30;;;;;;;;;;5012228;28;20044;-59
2021/12/28 01:17:22;;;;;;;0.40;0.40;;;;;;;;;;5009762;28;20065;-60
2021/12/28 01:19:48;;;;;;;0.32;0.32;;;;;;;;;;5009468;28;20306;-60
2021/12/28 01:22:13;;;;;;;0.30;0.30;;;;;;;;;;5011121;28;21724;-58
2021/12/28 01:24:39;;;;;;;5.63;2.17;;;;;;;;;;4993671;28;20033;-57
2021/12/28 01:27:05;;;;;;;0.30;0.30;;;;;;;;;;5011474;28;20073;-59
2021/12/28 01:29:32;;;;;;;0.63;0.63;;;;;;;;;;5010492;28;20421;-59
2021/12/28 01:31:59;;;;;;;5.30;2.20;;;;;;;;;;5010148;28;20072;-59
2021/12/28 01:34:24;;;;;;;0.55;0.55;;;;;;;;;;5008395;28;20652;-58
2021/12/28 01:36:50;;;;;;;0.30;0.30;;;;;;;;;;5009711;28;20164;-58
2021/12/28 01:39:16;;;;;;;1.02;0.88;;;;;;;;;;5011103;28;20506;-59
2021/12/28 01:41:42;;;;;;;0.55;0.55;;;;;;;;;;5011772;28;20128;-57
2021/12/28 01:44:09;;;;;;;0.47;0.47;;;;;;;;;;5010202;28;20515;-59
2021/12/28 01:46:36;;;;;;;1.75;1.65;;;;;;;;;;5008852;28;20052;-58
2021/12/28 01:49:02;;;;;;;0.60;0.30;;;;;;;;;;5010501;28;20038;-58
2021/12/28 01:51:28;;;;;;;0.60;0.60;;;;;;;;;;5009520;28;20056;-58
2021/12/28 01:53:57;;;;;;;0.30;0.30;;;;;;;;;;5009689;28;20045;-58
2021/12/28 01:56:24;;;;;;;0.30;0.30;;;;;;;;;;4990793;28;20095;-58
2021/12/28 01:58:50;;;;;;;0.55;0.55;;;;;;;;;;5009042;28;20065;-58
2021/12/28 02:01:16;;;;;;;0.30;0.30;;;;;;;;;;5011575;28;20144;-56
2021/12/28 02:03:43;;;;;;;0.43;0.43;;;;;;;;;;4990697;28;20076;-56
2021/12/28 02:06:10;;;;;;;0.30;0.30;;;;;;;;;;5010851;28;20029;-57
2021/12/28 02:08:36;;;;;;;0.30;0.30;;;;;;;;;;5007181;28;20861;-54
2021/12/28 02:11:03;;;;;;;0.60;0.40;;;;;;;;;;5010201;28;20042;-57
2021/12/28 02:13:29;;;;;;;0.30;0.30;;;;;;;;;;5007815;28;20049;-58
2021/12/28 02:15:56;;;;;;;0.70;0.70;;;;;;;;;;4988702;28;20042;-58
2021/12/28 02:18:23;;;;;;;0.30;0.30;;;;;;;;;;5008042;28;21947;-59
2021/12/28 02:20:49;;;;;;;0.40;0.40;;;;;;;;;;5010665;28;20088;-60
2021/12/28 02:23:15;;;;;;;0.30;0.30;;;;;;;;;;5010051;28;20053;-56
2021/12/28 02:25:42;;;;;;;0.30;0.30;;;;;;;;;;4992717;28;20803;-58
2021/12/28 02:28:08;;;;;;;0.40;0.40;;;;;;;;;;4992508;28;20060;-58
2021/12/28 02:30:35;;;;;;;0.30;0.30;;;;;;;;;;5010613;28;20080;-58
2021/12/28 02:33:01;;;;;;;3.93;3.60;;;;;;;;;;5012353;28;20119;-58
2021/12/28 02:35:27;;;;;;;0.30;0.30;;;;;;;;;;5008417;28;20060;-57
2021/12/28 02:37:54;;;;;;;0.30;0.30;;;;;;;;;;5008563;28;20512;-59
2021/12/28 02:40:22;;;;;;;0.30;0.30;;;;;;;;;;4990490;28;20120;-59
2021/12/28 02:42:48;;;;;;;1.00;1.00;;;;;;;;;;5007870;28;20045;-57
2021/12/28 02:45:18;;;;;;;0.30;0.30;;;;;;;;;;5009501;28;20124;-58
2021/12/28 02:59:13;;;;;;;0.30;0.30;;;;;;;;;;4353366;23;20706;-60
2021/12/28 03:01:40;;;;;;;0.87;0.87;;;;;;;;;;4858383;29;20398;-57
2021/12/28 03:04:08;;;;;;;0.30;0.30;;;;;;;;;;4859883;29;20052;-57
2021/12/28 03:06:35;;;;;;;0.30;0.30;;;;;;;;;;4861964;29;20060;-56
2021/12/28 03:09:02;;;;;;;0.30;0.30;;;;;;;;;;4866764;29;20132;-60
2021/12/28 03:11:29;;;;;;;0.33;0.33;;;;;;;;;;4863844;29;20040;-59
2021/12/28 03:13:57;;;;;;;4.67;4.23;;;;;;;;;;4863643;29;20056;-58
2021/12/28 03:16:23;;;;;;;0.50;0.50;;;;;;;;;;4863370;29;20053;-59
2021/12/28 03:18:49;;;;;;;0.30;0.30;;;;;;;;;;4863718;29;20340;-59
2021/12/28 03:21:16;;;;;;;0.30;0.30;;;;;;;;;;4868055;29;20060;-59
2021/12/28 03:23:43;;;;;;;0.30;0.30;;;;;;;;;;4863966;29;20107;-60
2021/12/28 03:26:09;;;;;;;0.30;0.30;;;;;;;;;;4865573;29;20044;-58
2021/12/28 03:28:39;;;;;;;0.30;0.30;;;;;;;;;;4855519;29;20206;-60
2021/12/28 03:31:06;;;;;;;0.30;0.30;;;;;;;;;;4848126;29;20052;-58
2021/12/28 03:33:34;;;;;;;0.30;0.30;;;;;;;;;;4864708;29;20121;-66
2021/12/28 03:36:00;;;;;;;0.30;0.30;;;;;;;;;;4847618;29;20048;-63
2021/12/28 03:38:26;;;;;;;0.30;0.30;;;;;;;;;;4865358;29;20049;-62
2021/12/28 03:40:52;;;;;;;0.30;0.30;;;;;;;;;;4865527;29;20052;-62
2021/12/28 03:43:19;;;;;;;0.30;0.30;;;;;;;;;;4838166;29;20056;-61
2021/12/28 03:45:45;;;;;;;0.33;0.33;;;;;;;;;;4867125;29;20057;-64
2021/12/28 03:48:10;;;;;;;0.30;0.30;;;;;;;;;;4864331;29;20680;-61
2021/12/28 03:50:37;;;;;;;0.40;0.40;;;;;;;;;;4862305;29;20063;-61
2021/12/28 03:53:03;;;;;;;0.60;0.60;;;;;;;;;;4867533;29;20146;-62
2021/12/28 03:55:29;;;;;;;0.30;0.30;;;;;;;;;;4852263;29;20090;-63
2021/12/28 03:57:58;;;;;;;0.30;0.30;;;;;;;;;;4867814;29;20049;-63
2021/12/28 04:02:59;;;;;;;0.33;0.30;;;;;;;;;;5101987;23;20366;-59
2021/12/28 04:05:25;;;;;;;0.30;0.30;;;;;;;;;;4890174;23;20080;-61
2021/12/28 04:08:03;;;;;;;0.30;0.30;;;;;;;;;;4878605;29;20057;-62
2021/12/28 04:10:38;;;;;;;0.30;0.30;;;;;;;;;;4888166;29;20056;-58
2021/12/28 04:13:04;;;;;;;0.30;0.30;;;;;;;;;;4891055;29;20052;-59
2021/12/28 04:15:30;;;;;;;0.30;0.30;;;;;;;;;;4892452;29;20054;-61
2021/12/28 04:17:56;;;;;;;0.60;0.60;;;;;;;;;;4879043;29;20128;-63
2021/12/28 04:20:25;;;;;;;0.60;0.60;;;;;;;;;;4856546;29;20049;-64
2021/12/28 04:22:51;;;;;;;0.30;0.30;;;;;;;;;;4876439;29;20433;-60
2021/12/28 04:25:18;;;;;;;0.40;0.40;;;;;;;;;;4876135;29;20041;-64
2021/12/28 04:27:44;;;;;;;3.90;3.60;;;;;;;;;;4878998;29;20056;-60
2021/12/28 04:30:11;;;;;;;0.40;0.40;;;;;;;;;;4887823;29;20049;-63
2021/12/28 04:32:41;;;;;;;1.13;1.13;;;;;;;;;;4861654;29;21779;-62
2021/12/28 04:35:07;;;;;;;0.30;0.30;;;;;;;;;;4884822;29;20037;-65
2021/12/28 04:37:33;;;;;;;0.30;0.30;;;;;;;;;;4877645;29;20052;-63
2021/12/28 04:39:59;;;;;;;0.43;0.43;;;;;;;;;;4883099;29;20522;-61
2021/12/28 04:42:27;;;;;;;0.50;0.50;;;;;;;;;;4878460;29;20044;-62
2021/12/28 04:44:54;;;;;;;0.50;0.50;;;;;;;;;;4864831;29;20121;-62
2021/12/28 04:47:19;;;;;;;0.40;0.40;;;;;;;;;;4865663;29;20820;-63
2021/12/28 04:49:46;;;;;;;0.60;0.60;;;;;;;;;;4875229;29;20040;-61
2021/12/28 04:52:24;;;;;;;0.53;0.53;;;;;;;;;;4860341;29;20160;-62
2021/12/28 04:54:50;;;;;;;0.50;0.50;;;;;;;;;;4865325;29;20044;-62
2021/12/28 04:57:16;;;;;;;0.33;0.30;;;;;;;;;;4886228;29;20729;-62
2021/12/28 04:59:42;;;;;;;0.30;0.30;;;;;;;;;;4883769;29;20040;-64
2021/12/28 05:02:08;;;;;;;0.30;0.30;;;;;;;;;;4889035;29;20051;-61
2021/12/28 05:04:34;;;;;;;0.30;0.30;;;;;;;;;;4885563;29;20097;-60
2021/12/28 05:07:08;;;;;;;0.40;0.40;;;;;;;;;;4886114;29;20541;-61
2021/12/28 05:09:34;;;;;;;1.90;1.80;;;;;;;;;;4882943;29;20408;-61
2021/12/28 05:12:00;;;;;;;0.30;0.30;;;;;;;;;;4883549;29;20045;-60
2021/12/28 05:14:27;;;;;;;0.40;0.40;;;;;;;;;;4880192;29;20652;-61
2021/12/28 05:16:52;;;;;;;0.40;0.40;;;;;;;;;;4890296;29;20040;-62
2021/12/28 05:19:18;;;;;;;0.30;0.30;;;;;;;;;;4895436;29;20424;-64
2021/12/28 05:21:45;;;;;;;0.40;0.40;;;;;;;;;;4880647;29;20043;-61
2021/12/28 05:24:14;;;;;;;0.50;0.50;;;;;;;;;;4891618;29;20041;-64
2021/12/28 05:26:40;;;;;;;1.47;1.40;;;;;;;;;;4876043;29;20585;-63
2021/12/28 05:29:06;;;;;;;18.50;3.03;;;;;;;;;;4879658;29;20453;-64
2021/12/28 05:31:50;;;;;;;0.73;0.63;;;;;;;;;;4886171;29;20076;-62
2021/12/28 05:34:16;;;;;;;0.30;0.30;;;;;;;;;;4888152;29;20045;-62
2021/12/28 05:36:42;;;;;;;0.83;0.83;;;;;;;;;;4883647;29;20043;-61
2021/12/28 05:39:07;;;;;;;0.30;0.30;;;;;;;;;;4890902;29;20132;-63
2021/12/28 05:41:34;;;;;;;0.40;0.40;;;;;;;;;;4886878;29;20079;-62
2021/12/28 05:43:59;;;;;;;0.40;0.40;;;;;;;;;;4883207;29;20052;-62
2021/12/28 05:46:44;;;;;;;0.77;0.77;;;;;;;;;;4886131;29;20062;-64
2021/12/28 05:49:09;;;;;;;4.53;4.13;;;;;;;;;;4887758;29;20089;-63
2021/12/28 05:51:35;;;;;;;1.07;1.07;;;;;;;;;;4887697;29;20529;-64
2021/12/28 05:54:02;;;;;;;2.10;2.00;;;;;;;;;;4870706;29;20412;-63
2021/12/28 05:56:27;;;;;;;0.83;0.83;;;;;;;;;;4888970;29;20045;-62
2021/12/28 05:58:53;;;;;;;0.30;0.30;;;;;;;;;;4885852;29;20052;-62
2021/12/28 06:01:19;;;;;;;0.87;0.77;;;;;;;;;;4885385;29;20037;-62
2021/12/28 06:03:45;;;;;;;1.60;1.53;;;;;;;;;;4883978;29;20057;-61
2021/12/28 06:06:11;;;;;;;1.00;0.90;;;;;;;;;;4885509;29;20189;-62
2021/12/28 06:08:37;;;;;;;0.43;0.43;;;;;;;;;;4883730;29;21640;-62
2021/12/28 06:11:05;;;;;;;0.40;0.40;;;;;;;;;;4885960;29;20543;-62
2021/12/28 06:13:31;;;;;;;0.57;0.57;;;;;;;;;;4884893;29;20489;-60
2021/12/28 06:15:57;;;;;;;0.80;0.80;;;;;;;;;;4885777;29;20081;-61
2021/12/28 06:18:23;;;;;;;0.67;0.67;;;;;;;;;;4884513;29;20052;-61
2021/12/28 06:20:49;;;;;;;2.20;2.10;;;;;;;;;;4885680;29;20075;-63
2021/12/28 06:23:15;;;;;;;0.40;0.40;;;;;;;;;;4885976;29;20123;-63
2021/12/28 06:25:41;;;;;;;1.30;1.23;;;;;;;;;;4883757;29;20048;-60
2021/12/28 06:28:07;;;;;;;0.30;0.30;;;;;;;;;;4884832;29;20063;-62
2021/12/28 06:30:33;;;;;;;0.30;0.30;;;;;;;;;;4886649;29;20060;-64
2021/12/28 06:32:59;;;;;;;0.93;0.90;;;;;;;;;;4878361;29;20037;-61
2021/12/28 06:35:31;;;;;;;0.50;0.50;;;;;;;;;;4888394;29;20047;-62
2021/12/28 06:37:57;;;;;;;0.55;0.40;;;;;;;;;;4883657;29;20036;-62
2021/12/28 06:40:23;;;;;;;5.80;2.73;;;;;;;;;;4899724;29;20045;-59
2021/12/28 06:42:49;;;;;;;0.40;0.40;;;;;;;;;;4892648;29;22077;-59
2021/12/28 06:45:15;;;;;;;1.20;1.10;;;;;;;;;;4892827;29;20055;-62
2021/12/28 06:47:41;;;;;;;0.30;0.30;;;;;;;;;;4890460;29;20646;-63
2021/12/28 06:50:07;;;;;;;0.97;0.97;;;;;;;;;;4889516;29;20048;-60
2021/12/28 06:52:33;;;;;;;0.30;0.30;;;;;;;;;;4890341;29;20519;-63
2021/12/28 06:54:59;;;;;;;0.43;0.40;;;;;;;;;;4891618;29;20049;-62
2021/12/28 06:57:25;;;;;;;0.40;0.40;;;;;;;;;;4887016;29;20049;-62
2021/12/28 06:59:51;;;;;;;3.50;1.83;;;;;;;;;;4891855;29;20040;-63
2021/12/28 07:02:17;;;;;;;0.40;0.40;;;;;;;;;;4890857;29;20600;-62
2021/12/28 07:04:43;;;;;;;0.37;0.37;;;;;;;;;;4889459;29;20153;-61
2021/12/28 07:07:10;;;;;;;0.77;0.77;;;;;;;;;;4889693;29;20060;-62
2021/12/28 07:09:36;;;;;;;0.53;0.53;;;;;;;;;;4887960;29;20045;-61
2021/12/28 07:12:02;;;;;;;1.43;1.37;;;;;;;;;;4889234;29;20131;-63
2021/12/28 07:14:28;;;;;;;0.60;0.60;;;;;;;;;;4888259;29;20080;-62
2021/12/28 07:16:55;;;;;;;0.60;0.60;;;;;;;;;;4887979;29;20045;-64
2021/12/28 07:19:21;;;;;;;0.30;0.30;;;;;;;;;;4885727;29;20040;-61
2021/12/28 07:21:47;;;;;;;0.30;0.30;;;;;;;;;;4888702;29;20044;-61
2021/12/28 07:24:13;;;;;;;2.00;1.90;;;;;;;;;;4886893;29;20040;-63
2021/12/28 07:26:40;;;;;;;2.00;1.17;;;;;;;;;;4885844;29;20052;-63
2021/12/28 07:29:06;;;;;;;0.40;0.40;;;;;;;;;;4886825;29;20454;-59
2021/12/28 07:31:32;;;;;;;0.30;0.30;;;;;;;;;;4887575;29;20524;-63
2021/12/28 07:33:58;;;;;;;0.30;0.30;;;;;;;;;;4888208;29;20044;-62
2021/12/28 07:36:24;;;;;;;0.30;0.30;;;;;;;;;;4886124;29;20068;-62
2021/12/28 07:38:50;;;;;;;0.30;0.30;;;;;;;;;;4888183;29;20064;-62
2021/12/28 07:41:16;;;;;;;0.30;0.30;;;;;;;;;;4886693;29;20037;-63
2021/12/28 07:43:42;;;;;;;0.30;0.30;;;;;;;;;;4886037;29;20057;-63
2021/12/28 07:46:08;;;;;;;0.30;0.30;;;;;;;;;;4885347;29;20045;-62
2021/12/28 07:48:34;;;;;;;0.30;0.30;;;;;;;;;;4885504;29;20063;-61
2021/12/28 07:51:00;;;;;;;0.77;0.73;;;;;;;;;;4880276;29;20051;-63
2021/12/28 07:53:26;;;;;;;0.30;0.30;;;;;;;;;;4887796;29;20055;-63
2021/12/28 07:55:52;;;;;;;0.30;0.30;;;;;;;;;;4887392;29;20124;-62
2021/12/28 07:58:18;;;;;;;0.50;0.50;;;;;;;;;;4885802;29;20073;-60
2021/12/28 08:00:43;;;;;;;0.30;0.30;;;;;;;;;;4887528;29;20041;-62
2021/12/28 08:03:10;;;;;;;1.20;1.13;;;;;;;;;;4888993;29;20047;-60
2021/12/28 08:05:36;;;;;;;0.30;0.30;;;;;;;;;;4887889;29;20553;-61
2021/12/28 08:08:03;;;;;;;0.40;0.40;;;;;;;;;;4887014;29;20493;-61
2021/12/28 08:10:29;;;;;;;0.50;0.50;;;;;;;;;;4885288;29;20040;-64
2021/12/28 08:12:56;;;;;;;0.43;0.43;;;;;;;;;;4885511;29;20111;-62
2021/12/28 08:15:26;;;;;;;0.30;0.30;;;;;;;;;;4886525;29;20055;-61
2021/12/28 08:17:52;;;;;;;0.30;0.30;;;;;;;;;;4884400;29;20092;-59
2021/12/28 08:20:18;;;;;;;0.30;0.30;;;;;;;;;;4885742;29;20478;-61
2021/12/28 08:22:45;;;;;;;0.30;0.30;;;;;;;;;;4886248;29;20068;-62
2021/12/28 08:25:12;;;;;;;0.30;0.30;;;;;;;;;;4886479;29;20064;-61
2021/12/28 08:27:41;;;;;;;0.43;0.40;;;;;;;;;;4865825;29;20072;-62
2021/12/28 08:30:08;;;;;;;0.40;0.40;;;;;;;;;;4884587;29;20048;-62
2021/12/28 08:32:34;;;;;;;0.30;0.30;;;;;;;;;;4885476;29;20108;-61
2021/12/28 08:35:00;;;;;;;0.40;0.40;;;;;;;;;;4885895;29;20036;-61
2021/12/28 08:37:27;;;;;;;1.87;1.07;;;;;;;;;;4883608;29;20136;-60
2021/12/28 08:39:53;;;;;;;0.40;0.40;;;;;;;;;;4885544;29;20093;-61
2021/12/28 08:42:21;;;;;;;0.30;0.30;;;;;;;;;;4885493;29;20088;-60
2021/12/28 08:44:47;;;;;;;0.30;0.30;;;;;;;;;;4887384;29;20100;-62
2021/12/28 08:47:13;;;;;;;0.30;0.30;;;;;;;;;;4885604;29;20189;-61
2021/12/28 08:49:39;;;;;;;0.47;0.40;;;;;;;;;;4884130;29;20045;-60
2021/12/28 08:52:07;;;;;;;0.30;0.30;;;;;;;;;;4884892;29;20426;-61
2021/12/28 08:54:33;;;;;;;2.07;1.73;;;;;;;;;;4884534;29;20721;-61
2021/12/28 08:56:59;;;;;;;2.77;2.53;;;;;;;;;;4884946;29;20061;-60
2021/12/28 08:59:25;;;;;;;0.30;0.30;;;;;;;;;;4883596;29;20040;-61
2021/12/28 09:01:51;;;;;;;0.30;0.30;;;;;;;;;;4877892;29;20612;-59
2021/12/28 09:04:18;;;;;;;0.37;0.37;;;;;;;;;;4883585;29;20044;-61
2021/12/28 09:06:44;;;;;;;0.40;0.40;;;;;;;;;;4883679;29;20083;-63
2021/12/28 09:09:10;;;;;;;0.40;0.40;;;;;;;;;;4884415;29;20036;-61
2021/12/28 09:11:36;;;;;;;0.30;0.30;;;;;;;;;;4887093;29;20079;-60
2021/12/28 09:14:02;;;;;;;0.40;0.40;;;;;;;;;;4885881;29;20045;-61
2021/12/28 09:16:28;;;;;;;0.40;0.40;;;;;;;;;;4887155;29;20402;-61
2021/12/28 09:18:54;;;;;;;0.40;0.40;;;;;;;;;;4893594;29;20130;-62
2021/12/28 09:21:20;;;;;;;35.07;4.00;;;;;;;;;;4878596;29;20551;-60
2021/12/28 09:23:46;;;;;;;0.30;0.30;;;;;;;;;;4882851;29;20517;-61
2021/12/28 09:26:11;;;;;;;0.30;0.30;;;;;;;;;;4884396;29;20041;-61
2021/12/28 09:28:37;;;;;;;0.50;0.50;;;;;;;;;;4883036;29;20108;-61
2021/12/28 09:31:03;;;;;;;0.30;0.30;;;;;;;;;;4883516;29;20048;-61
2021/12/28 09:33:29;;;;;;;0.83;0.83;;;;;;;;;;4879590;29;20047;-61
2021/12/28 09:35:55;;;;;;;0.40;0.40;;;;;;;;;;4883631;29;20060;-60
2021/12/28 09:38:22;;;;;;;0.70;0.70;;;;;;;;;;4883049;29;20057;-61
2021/12/28 09:40:48;;;;;;;0.30;0.30;;;;;;;;;;4884030;29;20036;-62
2021/12/28 09:43:14;;;;;;;0.30;0.30;;;;;;;;;;4880743;29;20172;-62
2021/12/28 09:45:40;;;;;;;10.10;4.00;;;;;;;;;;4881399;29;20052;-61
2021/12/28 09:48:07;;;;;;;0.30;0.30;;;;;;;;;;4883098;29;20071;-61
2021/12/28 09:50:34;;;;;;;0.87;0.73;;;;;;;;;;4883223;29;20055;-58
2021/12/28 09:53:00;;;;;;;0.30;0.30;;;;;;;;;;4884839;29;20514;-62
2021/12/28 09:55:27;;;;;;;0.30;0.30;;;;;;;;;;4882431;29;20044;-61
2021/12/28 09:57:53;;;;;;;0.30;0.30;;;;;;;;;;4882632;29;20077;-62
2021/12/28 10:00:20;;;;;;;0.30;0.30;;;;;;;;;;4881053;29;20040;-62
2021/12/28 10:02:47;;;;;;;0.30;0.30;;;;;;;;;;4883922;29;20947;-61
2021/12/28 10:05:16;;;;;;;0.73;0.73;;;;;;;;;;4883770;29;20056;-61
2021/12/28 10:07:50;;;;;;;0.30;0.30;;;;;;;;;;4881526;29;20104;-62
2021/12/28 10:10:17;;;;;;;0.47;0.47;;;;;;;;;;4881856;29;20043;-61
2021/12/28 10:12:44;;;;;;;0.30;0.30;;;;;;;;;;4882138;29;20051;-62
2021/12/28 10:15:15;;;;;;;0.40;0.40;;;;;;;;;;4883346;29;20055;-61
2021/12/28 10:17:43;;;;;;;0.30;0.30;;;;;;;;;;4881724;29;20045;-62
2021/12/28 10:20:11;;;;;;;0.30;0.30;;;;;;;;;;4883977;29;20140;-61
2021/12/28 10:22:39;;;;;;;0.30;0.30;;;;;;;;;;4883331;29;24361;-61
2021/12/28 10:25:09;;;;;;;0.30;0.30;;;;;;;;;;4885713;29;20109;-61
2021/12/28 10:27:35;;;;;;;0.30;0.30;;;;;;;;;;4883522;29;20068;-61
2021/12/28 10:30:05;;;;;;;0.40;0.40;;;;;;;;;;4884246;29;20053;-61
2021/12/28 10:32:31;;;;;;;0.30;0.30;;;;;;;;;;4885579;29;20147;-59
2021/12/28 10:35:04;;;;;;;0.30;0.30;;;;;;;;;;4883998;29;20154;-62
2021/12/28 10:37:32;;;;;;;0.30;0.30;;;;;;;;;;4884193;29;20036;-60
2021/12/28 10:39:59;;;;;;;1.23;1.23;;;;;;;;;;4885070;29;20044;-61
2021/12/28 10:43:03;;;;;;;0.30;0.30;;;;;;;;;;4883181;29;20068;-61
2021/12/28 10:45:37;;;;;;;0.33;0.33;;;;;;;;;;4799610;29;20078;-61
2021/12/28 10:48:04;;;;;;;0.30;0.30;;;;;;;;;;4800821;29;20825;-61
2021/12/28 10:50:36;;;;;;;0.40;0.40;;;;;;;;;;4843536;29;20051;-60
2021/12/28 10:53:17;;;;;;;0.30;0.30;;;;;;;;;;4887516;29;20044;-61
2021/12/28 10:55:43;;;;;;;0.33;0.33;;;;;;;;;;4864749;29;20041;-62
2021/12/28 10:58:11;;;;;;;0.40;0.40;;;;;;;;;;4889541;29;20051;-61
2021/12/28 11:00:37;;;;;;;0.30;0.30;;;;;;;;;;4885805;29;20053;-61
2021/12/28 11:03:15;;;;;;;0.30;0.30;;;;;;;;;;4887061;29;20053;-62
2021/12/28 11:05:42;;;;;;;0.40;0.40;;;;;;;;;;4886180;29;20052;-60
2021/12/28 11:08:08;;;;;;;0.30;0.30;;;;;;;;;;4886298;29;20060;-61
2021/12/28 11:10:35;;;;;;;0.30;0.30;;;;;;;;;;4881974;29;20047;-61
2021/12/28 11:13:01;;;;;;;0.60;0.60;;;;;;;;;;4882847;29;20050;-60
2021/12/28 11:15:32;;;;;;;0.30;0.30;;;;;;;;;;4882521;29;20040;-60
2021/12/28 11:17:57;;;;;;;0.30;0.30;;;;;;;;;;4882296;29;20055;-61
2021/12/28 11:20:30;;;;;;;0.30;0.30;;;;;;;;;;4881951;29;20036;-60
2021/12/28 11:23:12;;;;;;;0.60;0.60;;;;;;;;;;4885553;29;20053;-59
2021/12/28 11:25:38;;;;;;;0.30;0.30;;;;;;;;;;4884855;29;20048;-59
2021/12/28 11:28:21;;;;;;;0.30;0.30;;;;;;;;;;4888115;29;20782;-60
2021/12/28 11:31:02;;;;;;;0.30;0.30;;;;;;;;;;4887628;29;20107;-61
2021/12/28 11:33:41;;;;;;;0.30;0.30;;;;;;;;;;4887151;29;20048;-61
2021/12/28 11:36:07;;;;;;;0.30;0.30;;;;;;;;;;4886528;29;20056;-60
2021/12/28 11:38:34;;;;;;;0.30;0.30;;;;;;;;;;4886010;29;20047;-62
2021/12/28 11:41:01;;;;;;;0.40;0.40;;;;;;;;;;4886635;29;20047;-62
2021/12/28 11:43:27;;;;;;;0.30;0.30;;;;;;;;;;4884209;29;20036;-62
2021/12/28 11:45:53;;;;;;;0.30;0.30;;;;;;;;;;4885414;29;20045;-62
2021/12/28 11:48:19;;;;;;;0.30;0.30;;;;;;;;;;4886406;29;20143;-60
2021/12/28 11:50:45;;;;;;;0.30;0.30;;;;;;;;;;4886594;29;20549;-61
2021/12/28 11:53:14;;;;;;;0.30;0.30;;;;;;;;;;4887201;29;20087;-61
2021/12/28 11:55:43;;;;;;;0.30;0.30;;;;;;;;;;4885896;29;20052;-59
2021/12/28 11:58:09;;;;;;;0.40;0.40;;;;;;;;;;4887474;29;20049;-60
2021/12/28 12:00:42;;;;;;;0.30;0.30;;;;;;;;;;4885709;29;20051;-62
2021/12/28 12:03:07;;;;;;;0.50;0.50;;;;;;;;;;4885415;29;20041;-61
2021/12/28 12:05:34;;;;;;;0.30;0.30;;;;;;;;;;4881355;29;20051;-62
2021/12/28 12:08:14;;;;;;;0.30;0.30;;;;;;;;;;4869386;29;20069;-61
2021/12/28 12:10:44;;;;;;;0.30;0.30;;;;;;;;;;4884514;29;20059;-61
2021/12/28 12:13:21;;;;;;;0.30;0.30;;;;;;;;;;4884883;29;20056;-62
2021/12/28 12:15:52;;;;;;;0.30;0.30;;;;;;;;;;4883346;29;20044;-61
2021/12/28 12:18:19;;;;;;;0.30;0.30;;;;;;;;;;4885175;29;20044;-62
2021/12/28 12:20:47;;;;;;;0.40;0.40;;;;;;;;;;4885951;29;20466;-62
2021/12/28 12:23:15;;;;;;;0.32;0.32;;;;;;;;;;4885912;29;20037;-62
2021/12/28 12:25:50;;;;;;;0.30;0.30;;;;;;;;;;4885845;29;20453;-62
2021/12/28 12:28:19;;;;;;;0.30;0.30;;;;;;;;;;4885215;29;20694;-62
2021/12/28 12:30:53;;;;;;;0.52;0.52;;;;;;;;;;4884780;29;20797;-60
2021/12/28 12:33:18;;;;;;;0.30;0.30;;;;;;;;;;4885417;29;20132;-62
2021/12/28 12:35:58;;;;;;;0.30;0.30;;;;;;;;;;4885444;29;20112;-60
2021/12/28 12:38:28;;;;;;;0.50;0.50;;;;;;;;;;4884211;29;20511;-62
2021/12/28 12:41:00;;;;;;;0.30;0.30;;;;;;;;;;4885120;29;20500;-62
2021/12/28 12:43:35;;;;;;;0.30;0.30;;;;;;;;;;4884687;29;20073;-62
2021/12/28 12:46:05;;;;;;;0.30;0.30;;;;;;;;;;4884716;29;20049;-61
2021/12/28 12:48:37;;;;;;;2.60;0.77;;;;;;;;;;4885508;29;20057;-62
2021/12/28 12:51:23;;;;;;;0.90;0.90;;;;;;;;;;4884341;29;20045;-61
2021/12/28 12:53:50;;;;;;;0.30;0.30;;;;;;;;;;4862549;29;20306;-62
2021/12/28 12:56:18;;;;;;;0.38;0.30;;;;;;;;;;4886761;29;20493;-62
2021/12/28 12:58:47;;;;;;;0.38;0.38;;;;;;;;;;4876645;29;20044;-61
2021/12/28 13:01:22;;;;;;;6.72;1.30;;;;;;;;;;4882565;29;20105;-62
2021/12/28 13:03:48;;;;;;;0.30;0.30;;;;;;;;;;4883350;29;20092;-60
2021/12/28 13:06:14;;;;;;;0.30;0.30;;;;;;;;;;4885255;29;20136;-61
2021/12/28 13:08:55;;;;;;;0.30;0.30;;;;;;;;;;4884442;29;20111;-62
2021/12/28 13:11:33;;;;;;;0.30;0.30;;;;;;;;;;4885357;29;20049;-61
2021/12/28 13:14:00;;;;;;;0.30;0.30;;;;;;;;;;4886090;29;20055;-60
2021/12/28 13:16:25;;;;;;;0.60;0.55;;;;;;;;;;4886038;29;20048;-60
2021/12/28 13:19:04;;;;;;;0.30;0.30;;;;;;;;;;4887497;29;20048;-60
2021/12/28 13:21:30;;;;;;;0.47;0.47;;;;;;;;;;4887086;29;20049;-60
2021/12/28 13:24:06;;;;;;;0.50;0.50;;;;;;;;;;4887258;29;20088;-58
2021/12/28 13:26:45;;;;;;;0.30;0.30;;;;;;;;;;4880831;29;20565;-60
2021/12/28 13:29:12;;;;;;;0.45;0.45;;;;;;;;;;4886463;29;20047;-61
2021/12/28 13:31:38;;;;;;;0.40;0.40;;;;;;;;;;4888136;29;20045;-61
2021/12/28 13:34:03;;;;;;;0.30;0.30;;;;;;;;;;4886538;29;20055;-60
2021/12/28 13:36:29;;;;;;;0.30;0.30;;;;;;;;;;4885883;29;20036;-60
2021/12/28 13:39:08;;;;;;;0.40;0.40;;;;;;;;;;4886582;29;20055;-62
2021/12/28 13:41:34;;;;;;;0.30;0.30;;;;;;;;;;4884711;29;20044;-61
2021/12/28 13:44:04;;;;;;;0.40;0.40;;;;;;;;;;4885777;29;20037;-60
2021/12/28 13:46:30;;;;;;;0.38;0.38;;;;;;;;;;4885037;29;20071;-59
2021/12/28 13:48:58;;;;;;;10.25;2.30;;;;;;;;;;4884737;29;20151;-60
2021/12/28 13:51:24;;;;;;;2.30;1.52;;;;;;;;;;4884026;29;20077;-60
2021/12/28 13:53:51;;;;;;;0.80;0.60;;;;;;;;;;4883575;29;20123;-62
2021/12/28 13:56:21;;;;;;;0.30;0.30;;;;;;;;;;4883606;29;20044;-62
2021/12/28 13:58:49;;;;;;;0.65;0.65;;;;;;;;;;4883106;29;20041;-59
2021/12/28 14:01:19;;;;;;;0.40;0.40;;;;;;;;;;4884280;29;20450;-62
2021/12/28 14:04:01;;;;;;;0.82;0.82;;;;;;;;;;4883250;29;20474;-62
2021/12/28 14:06:27;;;;;;;0.35;0.35;;;;;;;;;;4883484;29;20048;-62
2021/12/28 14:08:54;;;;;;;0.45;0.45;;;;;;;;;;4882422;29;20040;-60
2021/12/28 14:11:39;;;;;;;0.28;0.28;;;;;;;;;;4883871;29;20478;-62
2021/12/28 14:14:22;;;;;;;0.30;0.30;;;;;;;;;;4884274;29;20389;-62
2021/12/28 14:16:55;;;;;;;0.30;0.30;;;;;;;;;;4883143;29;20048;-61
2021/12/28 14:19:25;;;;;;;0.30;0.30;;;;;;;;;;4882293;29;20723;-61
2021/12/28 14:21:51;;;;;;;0.47;0.47;;;;;;;;;;4882906;29;20066;-61
2021/12/28 14:24:17;;;;;;;0.57;0.57;;;;;;;;;;4885904;29;20554;-60
2021/12/28 14:26:48;;;;;;;0.40;0.40;;;;;;;;;;4886526;29;22739;-59
2021/12/28 14:29:18;;;;;;;0.30;0.30;;;;;;;;;;4886187;29;20044;-61
2021/12/28 14:31:45;;;;;;;0.30;0.30;;;;;;;;;;4887269;29;20052;-57
2021/12/28 14:34:13;;;;;;;0.30;0.30;;;;;;;;;;4887444;29;20113;-59
2021/12/28 14:36:40;;;;;;;0.45;0.45;;;;;;;;;;4882289;29;20211;-60
2021/12/28 14:39:07;;;;;;;0.25;0.25;;;;;;;;;;4888192;29;20064;-58
2021/12/28 14:41:33;;;;;;;0.40;0.38;;;;;;;;;;4885391;29;20063;-59
2021/12/28 14:44:08;;;;;;;0.60;0.60;;;;;;;;;;4887501;29;20067;-61
2021/12/28 14:46:34;;;;;;;0.50;0.30;;;;;;;;;;4886367;29;20842;-61
2021/12/28 14:49:00;;;;;;;2.85;1.85;;;;;;;;;;4887373;29;20044;-59
2021/12/28 14:51:30;;;;;;;0.30;0.30;;;;;;;;;;4882822;29;20041;-60
2021/12/28 14:54:12;;;;;;;0.30;0.30;;;;;;;;;;4884026;29;20473;-61
2021/12/28 14:56:39;;;;;;;0.30;0.30;;;;;;;;;;4882992;29;20048;-62
2021/12/28 14:59:17;;;;;;;0.30;0.30;;;;;;;;;;4883552;29;20124;-62
2021/12/28 15:01:43;;;;;;;0.30;0.30;;;;;;;;;;4874156;29;20048;-61